createdAt,value
2023-04-07T05:08:07.487Z,0.67
2023-04-07T05:11:10.020Z,0.77
2023-04-07T05:14:12.566Z,0.88
2023-04-07T05:17:15.013Z,0.98
2023-04-07T05:20:17.857Z,1.05
2023-04-07T05:23:21.712Z,1.10
2023-04-07T05:26:24.197Z,1.19
2023-04-07T05:29:26.771Z,1.26
2023-04-07T05:32:29.947Z,1.32
2023-04-07T05:35:32.493Z,1.40
2023-04-07T05:38:36.383Z,1.54
2023-04-07T05:41:38.861Z,1.55
2023-04-07T05:44:41.736Z,1.62
2023-04-07T05:47:44.325Z,1.66
2023-04-07T05:50:46.857Z,1.72
2023-04-07T05:53:50.999Z,1.74
2023-04-07T05:56:53.590Z,1.68
2023-04-07T05:59:56.270Z,1.74
2023-04-07T06:02:58.832Z,1.72
2023-04-07T06:06:01.542Z,1.69
2023-04-07T06:09:06.920Z,1.71
2023-04-07T06:12:12.277Z,1.76
2023-04-07T06:15:14.793Z,1.78
2023-04-07T06:18:17.272Z,1.91
2023-04-07T06:21:19.753Z,1.96
2023-04-07T06:24:25.226Z,2.00
2023-04-07T06:27:27.828Z,2.02
2023-04-07T06:30:30.556Z,2.08
2023-04-07T06:33:33.136Z,2.06
2023-04-07T06:36:35.882Z,2.02
2023-04-07T06:39:39.811Z,2.15
2023-04-07T06:42:42.281Z,2.29
2023-04-07T06:45:44.904Z,2.33
2023-04-07T06:48:47.614Z,2.25
2023-04-07T06:51:50.077Z,2.20
2023-04-07T06:54:53.881Z,2.24
2023-04-07T06:57:56.438Z,2.19
2023-04-07T07:00:58.975Z,2.20
2023-04-07T07:04:01.787Z,2.30
2023-04-07T07:07:04.350Z,2.31
2023-04-07T07:10:10.437Z,2.47
2023-04-07T07:13:12.937Z,2.54
2023-04-07T07:16:15.669Z,2.46
2023-04-07T07:19:18.249Z,2.55
2023-04-07T07:22:20.762Z,2.59
2023-04-07T07:25:26.813Z,2.75
2023-04-07T07:28:29.866Z,2.90
2023-04-07T07:31:32.474Z,3.00
2023-04-07T07:34:35.069Z,2.86
2023-04-07T07:37:37.583Z,2.91
2023-04-07T07:40:41.482Z,2.72
2023-04-07T07:43:44.018Z,2.72
2023-04-07T07:46:46.792Z,2.77
2023-04-07T07:49:49.598Z,2.84
2023-04-07T07:52:52.087Z,3.01
2023-04-07T07:55:56.875Z,3.11
2023-04-07T07:58:59.347Z,3.12
2023-04-07T08:02:02.003Z,3.01
2023-04-07T08:05:04.854Z,3.03
2023-04-07T08:08:07.417Z,3.20
2023-04-07T08:11:11.400Z,3.31
2023-04-07T08:14:13.973Z,3.12
2023-04-07T08:17:16.859Z,3.16
2023-04-07T08:20:19.630Z,3.21
2023-04-07T08:23:22.223Z,3.02
2023-04-07T08:26:25.994Z,3.03
2023-04-07T08:29:29.971Z,2.99
2023-04-07T08:32:40.033Z,3.00
2023-04-07T08:35:42.554Z,3.07
2023-04-07T08:38:45.142Z,3.15
2023-04-07T08:41:51.280Z,3.19
2023-04-07T08:44:55.153Z,3.27
2023-04-07T08:48:00.488Z,3.42
2023-04-07T08:51:06.754Z,3.42
2023-04-07T08:54:11.899Z,3.47
2023-04-07T08:57:18.010Z,3.52
2023-04-07T09:00:20.992Z,3.45
2023-04-07T09:03:24.758Z,3.35
2023-04-07T09:06:27.967Z,3.39
2023-04-07T09:09:30.847Z,3.51
2023-04-07T09:12:35.414Z,3.50
2023-04-07T09:15:38.905Z,3.61
2023-04-07T09:18:42.693Z,3.59
2023-04-07T09:21:49.742Z,3.61
2023-04-07T09:24:52.206Z,3.56
2023-04-07T09:27:57.489Z,3.56
2023-04-07T09:30:59.941Z,3.58
2023-04-07T09:34:02.542Z,3.58
2023-04-07T09:37:06.619Z,3.53
2023-04-07T09:40:10.140Z,3.47
2023-04-07T09:43:18.678Z,3.45
2023-04-07T09:46:21.199Z,3.43
2023-04-07T09:49:25.327Z,3.48
2023-04-07T09:52:51.731Z,3.39
2023-04-07T09:55:54.652Z,3.42
2023-04-07T09:58:58.781Z,3.51
2023-04-07T10:02:01.905Z,3.43
2023-04-07T10:05:05.434Z,3.55
2023-04-07T10:08:08.024Z,3.56
2023-04-07T10:11:11.488Z,3.54
2023-04-07T10:14:16.810Z,3.61
2023-04-07T10:17:20.724Z,3.53
2023-04-07T10:20:24.431Z,3.51
2023-04-07T10:23:38.474Z,3.53
2023-04-07T10:26:41.876Z,3.51
2023-04-07T10:29:49.506Z,3.55
2023-04-07T10:32:54.302Z,3.65
2023-04-07T10:36:05.043Z,3.74
2023-04-07T10:39:24.140Z,3.75
2023-04-07T10:42:46.379Z,3.76
2023-04-07T10:45:59.385Z,3.89
2023-04-07T10:49:09.820Z,3.98
2023-04-07T10:52:25.317Z,3.92
2023-04-07T10:55:33.550Z,3.92
2023-04-07T10:58:37.376Z,4.05
2023-04-07T11:01:41.297Z,4.07
2023-04-07T11:04:46.063Z,4.08
2023-04-07T11:07:55.291Z,3.98
2023-04-07T11:10:57.839Z,4.11
2023-04-07T11:14:00.518Z,4.17
2023-04-07T11:17:04.879Z,4.17
2023-04-07T11:20:08.930Z,4.19
2023-04-07T11:23:12.193Z,4.28
2023-04-07T11:26:16.362Z,4.23
2023-04-07T11:29:29.247Z,4.32
2023-04-07T11:32:33.154Z,4.32
2023-04-07T11:35:36.740Z,4.14
2023-04-07T11:38:39.891Z,4.17
2023-04-07T11:41:47.934Z,4.18
2023-04-07T11:44:50.554Z,4.11
2023-04-07T11:47:54.343Z,4.27
2023-04-07T11:50:57.037Z,4.30
2023-04-07T11:53:59.523Z,4.31
2023-04-07T11:57:02.048Z,4.35
2023-04-07T12:00:08.066Z,4.39
2023-04-07T12:03:14.705Z,4.41
2023-04-07T12:06:29.081Z,4.36
2023-04-07T12:09:35.921Z,4.45
2023-04-07T12:12:38.413Z,4.42
2023-04-07T12:15:41.066Z,4.46
2023-04-07T12:18:44.883Z,4.45
2023-04-07T12:21:47.668Z,4.48
2023-04-07T12:24:50.325Z,4.61
2023-04-07T12:27:52.824Z,4.61
2023-04-07T12:30:55.444Z,4.70
2023-04-07T12:33:59.613Z,4.80
2023-04-07T12:37:02.064Z,4.91
2023-04-07T12:40:05.572Z,4.99
2023-04-07T12:43:08.386Z,4.89
2023-04-07T12:46:10.912Z,4.92
2023-04-07T12:49:14.712Z,4.93
2023-04-07T12:52:17.160Z,4.87
2023-04-07T12:55:19.678Z,4.84
2023-04-07T12:58:22.131Z,4.88
2023-04-07T13:01:24.632Z,4.88
2023-04-07T13:04:30.730Z,4.94
2023-04-07T13:07:35.058Z,4.95
2023-04-07T13:10:37.648Z,5.00
2023-04-07T13:13:40.097Z,5.14
2023-04-07T13:16:42.671Z,5.21
2023-04-07T13:19:47.542Z,5.36
2023-04-07T13:23:02.778Z,5.25
2023-04-07T13:26:08.327Z,5.13
2023-04-07T13:29:10.856Z,5.11
2023-04-07T13:32:14.873Z,5.06
2023-04-07T13:35:18.960Z,5.17
2023-04-07T13:38:21.414Z,5.17
2023-04-07T13:41:24.023Z,5.19
2023-04-07T13:44:27.281Z,5.19
2023-04-07T13:47:33.979Z,5.15
2023-04-07T13:50:39.260Z,5.15
2023-04-07T13:53:41.724Z,5.17
2023-04-07T13:56:44.162Z,5.28
2023-04-07T13:59:46.667Z,5.25
2023-04-07T14:02:49.586Z,5.28
2023-04-07T14:05:53.440Z,5.26
2023-04-07T14:08:55.923Z,5.25
2023-04-07T14:11:59.436Z,5.44
2023-04-07T14:15:01.894Z,5.46
2023-04-07T14:18:04.479Z,5.34
2023-04-07T14:21:08.319Z,5.32
2023-04-07T14:24:10.878Z,5.38
2023-04-07T14:27:14.146Z,5.45
2023-04-07T14:30:16.654Z,5.47
2023-04-07T14:33:19.178Z,5.41
2023-04-07T14:36:22.967Z,5.32
2023-04-07T14:39:26.052Z,5.43
2023-04-07T14:42:29.731Z,5.39
2023-04-07T14:45:32.770Z,5.43
2023-04-07T14:48:35.284Z,5.25
2023-04-07T14:51:39.459Z,5.19
2023-04-07T14:54:41.988Z,5.08
2023-04-07T14:57:44.599Z,5.00
2023-04-07T15:05:29.176Z,5.11
2023-04-07T15:08:31.764Z,5.14
2023-04-07T15:11:34.345Z,5.19
2023-04-07T15:14:36.875Z,5.19
2023-04-07T15:17:44.395Z,5.18
2023-04-07T15:20:48.633Z,5.20
2023-04-07T15:23:51.476Z,5.27
2023-04-07T15:26:54.173Z,5.24
2023-04-07T15:29:56.910Z,5.21
